Time;durP1;ratioP1;P1;durP2;ratioP2;P2;SDS_P1;SDS_P2;PMS_P1;PMS_P2;Temp;Humidity;BMP_temperature;BMP_pressure;BME280_temperature;BME280_humidity;BME280_pressure;Samples;Min_cycle;Max_cycle;Signal;HPM_P1;HPM_P2
2022/11/02 00:00:44;;;;;;;3.93;1.97;;;14.20;90.90;;;14.71;57.11;99314.91;4965095;28;124137;-81
2022/11/02 00:03:11;;;;;;;4.50;1.80;;;14.20;90.90;;;14.70;57.28;99314.09;4971951;28;123947;-83
2022/11/02 00:05:38;;;;;;;4.30;1.90;;;14.20;90.90;;;14.69;57.20;99317.19;4967253;28;114202;-80
2022/11/02 00:08:05;;;;;;;4.83;1.83;;;14.20;90.90;;;14.68;57.33;99310.00;4967118;28;114265;-81
2022/11/02 00:10:31;;;;;;;4.70;2.00;;;14.20;90.90;;;14.67;57.35;99319.47;4968107;28;125768;-81
2022/11/02 00:12:58;;;;;;;4.97;2.17;;;14.20;90.90;;;14.67;57.47;99325.03;4972105;28;123843;-79
2022/11/02 00:15:29;;;;;;;6.07;1.87;;;14.20;91.00;;;14.66;57.27;99328.97;4967881;28;116307;-81
2022/11/02 00:18:09;;;;;;;2.43;1.90;;;14.20;91.00;;;14.67;57.39;99328.66;4968376;28;114989;-82
2022/11/02 00:20:38;;;;;;;5.80;1.87;;;14.20;91.00;;;14.65;57.57;99316.22;4967171;28;123805;-83
2022/11/02 00:23:06;;;;;;;6.00;2.07;;;14.20;91.10;;;14.67;57.49;99316.69;4965071;28;124261;-79
2022/11/02 00:25:33;;;;;;;3.93;2.07;;;14.20;91.10;;;14.65;57.34;99316.22;4965000;28;115687;-83
2022/11/02 00:27:59;;;;;;;6.13;2.13;;;14.20;91.00;;;14.63;57.40;99315.72;4959506;28;114026;-80
2022/11/02 00:30:26;;;;;;;6.90;1.80;;;14.20;91.00;;;14.59;57.45;99315.56;4968492;28;124185;-79
2022/11/02 00:32:52;;;;;;;4.50;2.40;;;14.10;90.90;;;14.56;57.45;99328.16;4987505;28;122826;-79
2022/11/02 00:35:18;;;;;;;5.90;2.43;;;14.20;91.00;;;14.53;57.51;99326.03;4969898;28;114996;-83
2022/11/02 00:37:45;;;;;;;5.23;1.90;;;14.10;91.00;;;14.52;57.33;99335.50;4970055;28;114128;-79
2022/11/02 00:40:12;;;;;;;2.87;1.60;;;14.10;91.00;;;14.51;57.59;99328.28;4968536;28;125014;-79
2022/11/02 00:42:38;;;;;;;3.33;1.40;;;14.20;91.00;;;14.53;57.37;99330.75;4968421;28;123889;-83
2022/11/02 00:45:06;;;;;;;4.70;1.80;;;14.10;91.00;;;14.52;57.42;99326.31;4978522;28;114471;-83
2022/11/02 00:47:33;;;;;;;4.33;1.80;;;14.10;91.10;;;14.53;57.49;99325.19;4972553;28;113741;-82
2022/11/02 00:49:59;;;;;;;6.50;1.90;;;14.10;91.40;;;14.55;57.51;99334.84;4972194;28;123749;-80
2022/11/02 00:52:26;;;;;;;5.50;1.70;;;14.10;91.10;;;14.57;57.60;99335.34;4968805;28;123496;-79
2022/11/02 00:54:52;;;;;;;4.33;2.37;;;14.10;91.10;;;14.58;57.63;99338.94;4951426;28;113347;-80
2022/11/02 00:57:19;;;;;;;4.37;1.80;;;14.10;91.10;;;14.57;57.62;99332.56;4970255;28;114053;-79
2022/11/02 00:59:45;;;;;;;5.40;1.70;;;14.20;91.20;;;14.58;57.70;99328.63;4968140;28;124836;-82
2022/11/02 01:02:12;;;;;;;4.63;1.67;;;14.10;91.10;;;14.59;57.69;99335.03;4986620;28;122945;-81
2022/11/02 01:04:38;;;;;;;2.37;1.67;;;14.10;91.10;;;14.57;57.45;99342.88;4967931;28;115207;-79
2022/11/02 01:07:05;;;;;;;2.80;1.60;;;14.30;91.20;;;14.56;57.28;99347.63;4970308;28;114099;-78
2022/11/02 01:09:33;;;;;;;5.87;1.90;;;14.10;91.10;;;14.53;57.50;99339.94;4966335;28;124528;-78
2022/11/02 01:12:00;;;;;;;2.43;1.60;;;14.10;91.10;;;14.50;57.42;99342.50;4971232;28;123853;-83
2022/11/02 01:14:26;;;;;;;4.27;1.73;;;14.00;91.00;;;14.48;57.55;99334.50;4968236;28;114257;-81
2022/11/02 01:16:53;;;;;;;4.43;1.73;;;14.00;91.10;;;14.47;57.65;99341.19;4970381;28;114014;-83
2022/11/02 01:19:19;;;;;;;5.10;1.90;;;14.00;91.10;;;14.45;57.58;99346.25;4967914;28;124600;-81
2022/11/02 01:21:45;;;;;;;6.37;1.90;;;14.00;91.10;;;14.44;57.65;99338.25;4967393;28;123937;-81
2022/11/02 01:24:12;;;;;;;12.13;2.10;;;14.00;91.10;;;14.40;57.65;99338.09;4967497;28;114157;-81
2022/11/02 01:26:38;;;;;;;5.47;2.00;;;14.00;91.20;;;14.41;57.68;99339.72;4971538;28;113942;-82
2022/11/02 01:29:05;;;;;;;4.77;1.57;;;13.90;91.10;;;14.39;58.03;99327.28;4967407;28;123919;-78
2022/11/02 01:31:32;;;;;;;3.90;1.43;;;13.90;91.20;;;14.40;57.95;99326.13;4985312;28;124220;-77
2022/11/02 01:33:58;;;;;;;3.80;1.90;;;14.00;91.20;;;14.39;57.86;99330.88;4960224;28;115246;-79
2022/11/02 01:36:25;;;;;;;3.77;1.60;;;13.90;91.20;;;14.36;57.81;99326.78;4954992;28;113991;-82
2022/11/02 01:38:53;;;;;;;6.60;2.20;;;14.00;91.20;;;14.36;58.00;99323.19;4968579;28;124059;-79
2022/11/02 01:41:20;;;;;;;2.43;1.40;;;14.00;91.20;;;14.35;58.09;99324.34;4971710;28;123854;-78
2022/11/02 01:43:52;;;;;;;3.23;1.43;;;13.90;91.20;;;14.35;58.05;99327.13;4967528;28;113371;-77
2022/11/02 01:46:36;;;;;;;9.60;2.00;;;13.90;91.30;;;14.35;58.14;99327.13;4968740;28;113836;-78
2022/11/02 01:49:13;;;;;;;5.20;1.50;;;13.90;91.30;;;14.32;58.27;99325.00;4968496;28;124126;-77
2022/11/02 01:51:53;;;;;;;6.47;2.20;;;13.90;91.30;;;14.29;58.51;99317.28;4948464;28;123326;-77
2022/11/02 01:54:25;;;;;;;2.30;1.40;;;13.90;91.40;;;14.27;58.32;99320.38;4993070;28;115105;-78
2022/11/02 01:56:59;;;;;;;2.50;1.50;;;13.90;91.40;;;14.28;58.48;99329.53;4968818;28;113912;-79
2022/11/02 01:59:36;;;;;;;4.83;1.70;;;13.90;91.40;;;14.26;58.60;99312.38;4968929;28;123220;-79
2022/11/02 02:02:09;;;;;;;2.60;1.57;;;13.80;91.50;;;14.26;58.53;99309.59;4966871;28;123356;-78
2022/11/02 02:04:36;;;;;;;6.70;1.67;;;13.80;91.50;;;14.25;58.37;99311.56;4967335;28;114087;-79
2022/11/02 02:07:03;;;;;;;2.27;1.50;;;13.80;91.60;;;14.26;58.60;99302.06;4974120;28;114123;-77
2022/11/02 02:09:30;;;;;;;4.50;1.80;;;13.80;91.60;;;14.27;58.53;99294.56;4967520;28;123877;-78
2022/11/02 02:11:56;;;;;;;3.30;1.50;;;13.80;91.60;;;14.29;58.45;99289.47;4966610;28;124085;-78
2022/11/02 02:14:25;;;;;;;2.90;1.80;;;13.80;91.60;;;14.28;58.56;99285.06;4967526;28;114318;-78
2022/11/02 02:17:11;;;;;;;4.27;2.00;;;13.80;91.60;;;14.26;58.59;99282.59;4966842;28;113876;-78
2022/11/02 02:19:54;;;;;;;5.00;1.97;;;13.90;91.70;;;14.26;58.38;99276.22;4952187;28;123153;-77
2022/11/02 02:22:46;;;;;;;3.17;2.00;;;13.80;91.60;;;14.25;58.61;99271.84;4967011;28;124049;-77
2022/11/02 02:25:55;;;;;;;4.57;1.63;;;13.80;91.60;;;14.20;58.47;99266.44;4990968;28;115766;-81
2022/11/02 02:28:42;;;;;;;3.07;1.77;;;13.80;91.60;;;14.18;58.59;99268.69;4984201;28;113274;-81
2022/11/02 02:31:17;;;;;;;3.20;1.57;;;13.80;91.60;;;14.18;58.63;99274.25;4968736;28;123848;-84
2022/11/02 02:33:52;;;;;;;6.73;1.90;;;13.70;91.60;;;14.18;58.83;99274.25;4951185;28;122591;-80
2022/11/02 02:36:30;;;;;;;3.60;1.83;;;13.70;91.70;;;14.17;58.76;99278.19;4948546;28;113157;-80
2022/11/02 02:39:19;;;;;;;4.97;1.60;;;13.70;91.70;;;14.13;58.83;99273.28;4974137;28;114430;-79
2022/11/02 02:42:15;;;;;;;6.60;1.73;;;13.70;91.70;;;14.12;58.89;99273.59;4962244;28;124667;-79
2022/11/02 02:44:52;;;;;;;3.37;1.87;;;13.70;91.80;;;14.13;59.09;99272.44;4936939;28;123881;-78
2022/11/02 02:47:26;;;;;;;5.27;2.20;;;13.70;91.80;;;14.15;58.97;99281.28;4965895;28;115178;-78
2022/11/02 02:50:02;;;;;;;4.00;1.90;;;13.70;91.80;;;14.15;59.03;99275.72;4967408;28;115208;-79
2022/11/02 02:52:32;;;;;;;3.70;1.60;;;13.70;91.80;;;14.13;58.99;99276.06;4967058;28;124290;-79
2022/11/02 02:55:00;;;;;;;4.10;1.67;;;13.70;91.80;;;14.12;59.09;99274.41;4970526;28;123891;-79
2022/11/02 02:57:30;;;;;;;4.67;1.60;;;13.70;91.90;;;14.13;59.08;99272.44;4968260;28;114370;-78
2022/11/02 02:59:57;;;;;;;2.70;1.67;;;13.70;91.90;;;14.17;59.16;99267.09;4965853;28;114157;-80
2022/11/02 03:02:30;;;;;;;6.20;1.60;;;13.70;91.90;;;14.20;59.15;99266.44;4948821;28;123459;-81
2022/11/02 03:04:57;;;;;;;3.43;1.87;;;13.70;91.90;;;14.21;59.14;99263.34;4956166;28;124152;-80
2022/11/02 03:07:32;;;;;;;5.07;1.80;;;13.80;91.90;;;14.22;58.89;99259.41;4967106;28;114680;-77
2022/11/02 03:10:05;;;;;;;4.50;1.97;;;13.80;91.90;;;14.23;58.99;99258.25;4966292;28;114068;-78
2022/11/02 03:12:44;;;;;;;4.40;1.83;;;13.80;92.00;;;14.24;58.78;99261.84;4964348;28;123829;-78
2022/11/02 03:15:20;;;;;;;3.80;1.60;;;13.80;92.00;;;14.24;58.94;99256.28;4949105;28;122938;-79
2022/11/02 03:18:34;;;;;;;4.73;1.87;;;13.80;92.00;;;14.23;58.73;99258.25;4965427;28;114463;-78
2022/11/02 03:21:13;;;;;;;3.63;1.80;;;13.80;92.00;;;14.23;58.98;99265.78;4969031;28;114274;-78
2022/11/02 03:23:57;;;;;;;4.03;1.70;;;13.80;92.00;;;14.24;58.83;99261.84;4967864;28;125597;-79
2022/11/02 03:26:42;;;;;;;5.67;1.90;;;13.80;92.00;;;14.23;58.97;99271.34;4952039;28;123375;-78
2022/11/02 03:29:17;;;;;;;3.23;1.93;;;13.70;92.00;;;14.20;58.91;99274.75;4967209;28;114509;-78
2022/11/02 03:32:12;;;;;;;4.40;2.10;;;13.70;92.00;;;14.15;59.11;99268.19;4966208;28;113676;-78
2022/11/02 03:34:43;;;;;;;2.23;1.80;;;13.70;92.00;;;14.13;59.29;99278.84;4965700;28;124108;-79
2022/11/02 03:37:23;;;;;;;2.60;1.60;;;13.70;92.00;;;14.13;59.17;99272.44;4966406;28;123043;-78
2022/11/02 03:40:01;;;;;;;3.10;1.73;;;13.70;92.00;;;14.13;59.34;99273.28;4961037;28;115427;-78
2022/11/02 03:42:32;;;;;;;5.03;2.20;;;13.70;92.10;;;14.14;59.27;99282.44;4959177;28;115118;-80
2022/11/02 03:45:20;;;;;;;5.43;1.83;;;13.70;92.10;;;14.12;59.09;99273.59;4959554;28;122831;-78
2022/11/02 03:48:00;;;;;;;3.30;1.83;;;13.70;92.10;;;14.11;59.18;99281.13;4968749;28;123866;-78
2022/11/02 03:50:27;;;;;;;2.97;1.50;;;13.70;92.10;;;14.08;59.41;99283.75;4958575;28;113749;-78
2022/11/02 03:53:00;;;;;;;5.33;1.73;;;13.60;92.00;;;14.08;59.37;99276.22;4971657;28;113819;-80
2022/11/02 03:55:39;;;;;;;2.97;1.70;;;13.60;92.10;;;14.10;59.33;99278.66;4963250;28;124560;-80
2022/11/02 03:58:10;;;;;;;2.20;1.40;;;13.60;92.10;;;14.10;58.96;99289.78;4944952;28;123219;-78
2022/11/02 04:01:07;;;;;;;2.50;1.67;;;14.20;92.30;;;14.11;59.27;99289.47;4971429;28;114574;-78
2022/11/02 04:03:39;;;;;;;4.43;1.73;;;13.60;92.10;;;14.12;59.16;99293.88;4967533;28;114518;-79
2022/11/02 04:06:06;;;;;;;4.10;1.60;;;13.60;92.10;;;14.13;58.96;99289.97;4959200;28;121796;-82
2022/11/02 04:08:45;;;;;;;4.47;1.70;;;13.70;92.10;;;14.15;59.04;99295.19;4975774;28;123680;-79
2022/11/02 04:16:44;;;;;;;3.33;1.77;;;13.70;92.00;;;14.12;58.80;99298.63;4972495;28;125086;-78
2022/11/02 04:19:29;;;;;;;5.03;1.90;;;13.60;91.90;;;14.10;58.92;99290.63;4969429;28;123836;-82
2022/11/02 04:27:26;;;;;;;2.67;1.60;;;13.60;91.80;;;14.03;58.72;99298.59;4963946;28;125423;-78
2022/11/02 04:29:52;;;;;;;3.20;1.80;;;13.60;91.80;;;14.06;58.86;99305.47;4971428;28;123848;-82
2022/11/02 04:35:06;;;;;;;4.60;1.73;;;13.60;91.80;;;14.02;58.76;99299.72;4972484;28;115701;-79
2022/11/02 04:40:24;;;;;;;5.93;1.73;;;13.60;91.80;;;14.04;58.72;99311.34;4971654;28;123583;-78
2022/11/02 04:42:50;;;;;;;3.37;1.77;;;13.60;91.80;;;14.04;58.73;99311.34;4964009;28;114322;-78
2022/11/02 04:45:17;;;;;;;6.57;1.73;;;13.70;91.80;;;14.05;58.67;99310.22;4967342;28;113700;-80
2022/11/02 04:47:44;;;;;;;4.00;1.87;;;13.60;91.80;;;14.05;58.99;99310.22;4961398;28;124847;-79
2022/11/02 04:50:11;;;;;;;3.13;1.60;;;13.60;91.80;;;14.07;58.63;99313.47;4969003;28;123862;-78
2022/11/02 04:52:38;;;;;;;2.60;1.60;;;13.70;91.80;;;14.07;58.63;99318.22;4984645;28;113470;-79
2022/11/02 04:55:05;;;;;;;4.50;1.87;;;13.60;91.70;;;14.06;58.33;99316.59;4998686;28;113742;-78
2022/11/02 04:57:32;;;;;;;3.73;1.70;;;13.60;91.70;;;14.04;58.57;99313.31;4968450;28;123679;-78
2022/11/02 04:59:58;;;;;;;2.60;1.50;;;13.60;91.70;;;14.01;58.58;99320.31;4969291;28;123640;-78
2022/11/02 05:02:25;;;;;;;4.00;1.53;;;13.60;91.70;;;13.96;58.62;99317.69;4968540;28;114548;-79
2022/11/02 05:04:51;;;;;;;2.70;1.60;;;13.60;91.70;;;13.91;58.61;99317.84;4969679;28;113948;-78
2022/11/02 05:07:18;;;;;;;3.87;1.70;;;13.50;91.70;;;13.89;58.81;99317.38;4968191;28;124273;-79
2022/11/02 05:09:44;;;;;;;5.33;1.40;;;13.50;92.00;;;13.86;58.84;99318.81;4968150;28;123958;-78
2022/11/02 05:12:11;;;;;;;2.30;1.50;;;13.50;91.70;;;13.84;58.72;99314.72;4969521;28;114404;-78
2022/11/02 05:14:37;;;;;;;4.60;1.80;;;13.50;91.70;;;13.83;59.22;99321.41;4969218;28;114831;-79
2022/11/02 05:17:04;;;;;;;5.43;2.00;;;13.40;91.70;;;13.81;59.00;99320.91;4968821;28;124126;-78
2022/11/02 05:19:30;;;;;;;4.70;1.60;;;13.40;91.70;;;13.79;58.95;99328.75;4968911;28;123892;-78
2022/11/02 05:21:57;;;;;;;3.67;1.70;;;13.40;91.70;;;13.78;58.80;99330.72;4967783;28;115557;-78
2022/11/02 05:24:23;;;;;;;6.83;2.33;;;13.40;91.70;;;13.79;58.96;99337.91;4969570;28;115231;-79
2022/11/02 05:26:49;;;;;;;3.40;1.67;;;14.30;92.10;;;13.81;58.94;99332.84;4969269;28;124314;-78
2022/11/02 05:29:16;;;;;;;2.63;1.60;;;14.40;92.20;;;13.84;58.79;99331.41;4970037;28;123907;-80
2022/11/02 05:31:42;;;;;;;4.50;1.70;;;13.40;91.80;;;13.83;58.76;99335.28;4969345;28;113719;-78
2022/11/02 05:34:09;;;;;;;3.00;1.80;;;13.40;91.70;;;13.80;58.81;99347.84;4969548;28;113997;-78
2022/11/02 05:36:35;;;;;;;3.97;1.73;;;13.40;91.70;;;13.81;58.63;99348.66;4968575;28;124076;-78
2022/11/02 05:39:04;;;;;;;10.73;1.70;;;13.40;91.70;;;13.79;58.72;99339.88;4969577;28;123785;-79
2022/11/02 05:41:31;;;;;;;3.43;1.50;;;13.40;91.70;;;13.76;58.87;99344.09;4968963;28;114295;-79
2022/11/02 05:43:57;;;;;;;3.30;1.60;;;13.40;91.70;;;13.76;59.05;99346.06;4968726;28;113683;-81
2022/11/02 05:46:24;;;;;;;2.43;1.73;;;13.40;91.80;;;13.76;59.28;99337.72;5002410;28;124057;-81
2022/11/02 05:48:50;;;;;;;5.47;1.90;;;13.40;91.90;;;13.77;59.14;99344.91;4971593;28;123721;-80
2022/11/02 05:51:17;;;;;;;3.47;1.60;;;13.40;91.90;;;13.78;58.86;99349.31;4969087;28;114062;-79
2022/11/02 05:53:43;;;;;;;3.30;1.70;;;13.40;91.90;;;13.78;59.07;99349.31;4968899;28;113732;-81
2022/11/02 05:56:11;;;;;;;1.83;1.60;;;13.30;91.80;;;13.77;59.02;99348.50;4986913;28;124466;-79
2022/11/02 05:58:37;;;;;;;4.10;1.57;;;13.30;91.80;;;13.78;58.77;99354.88;4968493;28;123784;-79
2022/11/02 06:01:06;;;;;;;4.70;2.10;;;13.30;91.70;;;13.77;58.67;99350.47;4984294;28;114400;-78
2022/11/02 06:03:33;;;;;;;3.63;1.63;;;13.30;91.70;;;13.75;58.75;99356.31;4966517;28;114017;-81
2022/11/02 06:06:06;;;;;;;14.83;2.20;;;13.50;91.80;;;13.76;58.70;99346.06;4968843;28;124370;-79
2022/11/02 06:08:35;;;;;;;5.77;1.60;;;13.30;91.70;;;13.75;58.73;99355.50;4968478;28;124657;-80
2022/11/02 06:11:11;;;;;;;6.20;2.37;;;13.40;91.80;;;13.72;58.70;99356.97;4971295;28;114936;-78
2022/11/02 06:13:39;;;;;;;4.13;1.60;;;13.30;91.70;;;13.70;58.50;99365.63;4969232;28;115053;-78
2022/11/02 06:16:11;;;;;;;4.83;1.97;;;13.30;91.70;;;13.69;58.72;99363.16;4968141;28;123903;-77
2022/11/02 06:18:38;;;;;;;3.83;1.77;;;13.30;91.70;;;13.67;58.83;99363.50;4957916;28;123701;-79
2022/11/02 06:21:05;;;;;;;2.63;1.90;;;13.40;91.70;;;13.66;58.89;99370.19;4956695;28;115089;-78
2022/11/02 06:23:31;;;;;;;4.33;1.93;;;13.30;91.70;;;13.65;58.92;99374.09;4956993;28;113649;-78
2022/11/02 06:26:00;;;;;;;6.00;1.73;;;13.30;91.70;;;13.65;58.76;99373.28;4966464;28;124117;-79
2022/11/02 06:28:28;;;;;;;4.70;2.20;;;13.20;91.70;;;13.64;58.75;99380.78;4975480;28;123861;-77
2022/11/02 06:30:55;;;;;;;2.93;1.57;;;13.30;91.80;;;13.64;58.91;99378.00;4968116;28;115067;-77
2022/11/02 06:33:21;;;;;;;6.23;1.90;;;13.20;91.70;;;13.64;58.80;99386.34;4965157;28;114150;-80
2022/11/02 06:35:51;;;;;;;3.97;1.70;;;13.20;91.70;;;13.64;58.89;99386.34;4956560;28;123786;-81
2022/11/02 06:38:18;;;;;;;2.70;1.47;;;13.20;91.80;;;13.66;59.04;99383.25;4966157;28;124416;-79
2022/11/02 06:41:03;;;;;;;5.50;2.17;;;13.20;91.80;;;13.68;58.87;99392.09;4962828;28;114461;-77
2022/11/02 06:43:29;;;;;;;2.70;1.80;;;13.30;91.80;;;13.67;59.04;99385.72;4963740;28;114103;-78
2022/11/02 06:45:57;;;;;;;3.77;1.90;;;13.90;92.10;;;13.69;58.94;99391.75;4969627;28;124479;-80
2022/11/02 06:48:25;;;;;;;10.30;2.10;;;13.30;91.90;;;13.70;58.87;99404.53;4965566;28;123636;-80
2022/11/02 06:50:52;;;;;;;2.43;1.50;;;13.30;91.90;;;13.69;58.97;99408.41;4956834;28;114313;-79
2022/11/02 06:53:18;;;;;;;4.77;2.10;;;13.30;91.90;;;13.72;59.09;99412.50;4971806;28;113980;-79
2022/11/02 06:55:50;;;;;;;4.40;1.97;;;13.30;91.90;;;13.77;59.02;99419.91;4955362;28;124368;-78
2022/11/02 06:58:18;;;;;;;3.53;1.43;;;13.40;92.00;;;13.80;58.90;99422.84;4961466;28;123831;-78
2022/11/02 07:00:44;;;;;;;7.13;2.23;;;13.30;91.90;;;13.84;58.79;99423.06;4952241;28;114203;-81
2022/11/02 07:03:11;;;;;;;11.93;2.13;;;13.40;92.00;;;13.87;59.21;99431.56;4969974;28;113908;-78
2022/11/02 07:05:37;;;;;;;5.97;2.00;;;13.40;92.00;;;13.91;58.97;99446.44;4965044;28;123981;-78
2022/11/02 07:08:05;;;;;;;3.77;1.83;;;13.40;92.00;;;13.93;58.94;99446.13;4999034;28;124184;-79
2022/11/02 07:10:34;;;;;;;4.93;2.10;;;13.40;92.00;;;13.95;59.10;99443.03;4961085;28;114063;-78
2022/11/02 07:13:01;;;;;;;6.43;1.97;;;13.50;92.10;;;14.01;59.25;99450.91;4962867;28;114031;-82
2022/11/02 07:15:27;;;;;;;6.17;1.60;;;13.50;92.40;;;14.05;59.08;99446.38;4975446;28;123451;-82
2022/11/02 07:17:54;;;;;;;5.70;2.30;;;13.60;92.20;;;14.11;59.17;99458.16;4958319;28;124247;-87
2022/11/02 07:20:20;;;;;;;8.13;1.80;;;13.60;92.10;;;14.14;59.14;99463.06;4977426;28;114399;-83
2022/11/02 07:22:56;;;;;;;3.70;2.03;;;13.80;92.20;;;14.20;59.18;99458.19;4965807;28;114436;-80
2022/11/02 07:25:24;;;;;;;8.27;2.00;;;13.70;92.20;;;14.23;59.13;99460.31;4963907;28;124489;-80
2022/11/02 07:27:50;;;;;;;5.80;1.80;;;13.70;92.20;;;14.26;59.01;99459.69;4967490;28;123828;-79
2022/11/02 07:30:18;;;;;;;5.93;2.07;;;13.80;92.20;;;14.30;59.09;99461.50;4953858;28;114262;-79
2022/11/02 07:32:45;;;;;;;3.87;2.13;;;13.80;92.20;;;14.35;59.04;99469.69;4964778;28;113997;-78
2022/11/02 07:35:16;;;;;;;3.47;1.60;;;13.90;92.20;;;14.42;59.12;99471.19;4964641;28;124710;-77
2022/11/02 07:37:43;;;;;;;7.37;2.10;;;13.90;92.20;;;14.47;58.72;99476.59;4974199;28;124508;-79
2022/11/02 07:40:13;;;;;;;5.03;2.20;;;14.40;92.40;;;14.49;58.74;99471.56;4985275;28;113999;-79
2022/11/02 07:42:45;;;;;;;4.40;1.83;;;14.00;92.20;;;14.53;58.79;99475.34;4971591;28;114204;-80
2022/11/02 07:45:12;;;;;;;6.20;2.00;;;14.00;92.10;;;14.56;58.66;99480.25;5004446;28;123498;-79
2022/11/02 07:47:46;;;;;;;3.43;1.97;;;13.50;91.80;;;14.61;58.61;99482.06;4963683;28;124678;-77
2022/11/02 07:50:15;;;;;;;7.50;2.50;;;14.10;92.10;;;14.62;58.50;99481.75;4966657;28;114728;-79
2022/11/02 07:52:48;;;;;;;14.97;6.97;;;14.10;92.00;;;14.66;58.45;99484.72;4953965;28;114575;-79
2022/11/02 07:55:17;;;;;;;9.73;3.80;;;14.20;92.00;;;14.69;58.42;99475.72;4960961;28;123244;-83
2022/11/02 07:57:53;;;;;;;6.80;2.23;;;14.20;92.00;;;14.74;58.18;99481.13;4968872;28;123008;-80
2022/11/02 08:00:20;;;;;;;7.80;2.43;;;14.30;92.10;;;14.76;58.34;99488.00;4969818;28;114396;-79
2022/11/02 08:02:46;;;;;;;3.77;1.70;;;14.30;91.90;;;14.77;57.90;99483.25;4962535;28;114112;-78
2022/11/02 08:05:13;;;;;;;7.43;2.20;;;14.30;91.90;;;14.80;58.05;99485.41;4967278;28;124654;-78
2022/11/02 08:07:39;;;;;;;8.93;1.70;;;14.30;91.80;;;14.82;57.97;99487.88;4968977;28;123955;-79
2022/11/02 08:10:07;;;;;;;4.43;1.90;;;14.30;91.80;;;14.83;57.86;99479.22;5001471;28;114177;-83
2022/11/02 08:12:33;;;;;;;7.10;2.33;;;14.40;91.70;;;14.87;57.60;99488.53;4959119;28;114987;-81
2022/11/02 08:15:00;;;;;;;9.90;2.43;;;14.40;91.70;;;14.90;57.68;99493.44;4968945;28;124406;-81
2022/11/02 08:17:26;;;;;;;6.80;2.27;;;14.40;91.70;;;14.93;57.59;99480.84;4967852;28;123225;-84
2022/11/02 08:19:53;;;;;;;5.03;1.80;;;14.40;91.70;;;14.95;57.72;99482.16;4973410;28;114188;-81
2022/11/02 08:22:19;;;;;;;6.90;2.37;;;14.50;91.70;;;14.97;57.49;99491.00;4969140;28;114518;-81
2022/11/02 08:24:46;;;;;;;7.67;2.03;;;14.50;91.70;;;15.00;57.42;99489.53;4968745;28;124134;-84
2022/11/02 08:27:12;;;;;;;8.90;1.80;;;14.60;91.70;;;15.02;57.50;99493.63;4970606;28;123213;-82
2022/11/02 08:29:39;;;;;;;6.67;1.90;;;14.50;91.60;;;15.06;57.61;99501.34;4968878;28;114199;-83
2022/11/02 08:32:05;;;;;;;7.30;1.83;;;14.50;91.60;;;15.10;57.58;99505.09;4987108;28;113252;-81
2022/11/02 08:34:32;;;;;;;10.33;2.63;;;14.60;91.70;;;15.13;57.26;99498.91;4968276;28;124161;-78
2022/11/02 08:36:58;;;;;;;4.70;1.87;;;14.70;91.60;;;15.17;57.30;99499.88;4970163;28;124406;-77
2022/11/02 08:39:25;;;;;;;6.67;2.40;;;14.70;91.60;;;15.21;57.42;99495.31;4968099;28;115104;-78
2022/11/02 08:41:51;;;;;;;4.50;2.07;;;14.70;91.60;;;15.25;57.32;99490.69;4968881;28;114233;-77
2022/11/02 08:44:17;;;;;;;7.03;2.13;;;14.80;91.60;;;15.32;57.07;99502.19;4968663;28;124965;-77
2022/11/02 08:46:44;;;;;;;5.10;1.80;;;14.80;91.60;;;15.37;56.90;99504.00;4966026;28;124288;-78
2022/11/02 08:49:10;;;;;;;6.87;1.67;;;14.90;91.60;;;15.41;57.11;99500.22;4969230;28;114502;-77
2022/11/02 08:51:37;;;;;;;2.67;1.67;;;14.90;91.50;;;15.45;57.20;99494.81;4968411;28;113997;-78
2022/11/02 08:54:03;;;;;;;4.80;1.90;;;14.90;91.50;;;15.51;56.87;99503.81;4968842;28;123910;-78
2022/11/02 08:56:30;;;;;;;4.30;1.97;;;15.00;91.50;;;15.56;57.14;99501.69;4967878;28;123264;-78
2022/11/02 08:58:56;;;;;;;5.40;1.90;;;15.00;91.80;;;15.61;56.87;99493.16;4968972;28;114385;-78
2022/11/02 09:01:23;;;;;;;3.90;2.27;;;15.10;91.50;;;15.67;56.78;99493.81;4986850;28;111852;-77
2022/11/02 09:03:49;;;;;;;2.63;1.50;;;15.10;91.40;;;15.74;56.77;99493.34;4967518;28;125166;-77
2022/11/02 09:06:16;;;;;;;5.93;2.00;;;15.20;91.50;;;15.79;56.52;99505.13;4968106;28;123965;-78
2022/11/02 09:08:42;;;;;;;3.40;1.60;;;15.30;91.40;;;15.84;56.24;99496.59;4967865;28;114055;-79
2022/11/02 09:11:09;;;;;;;5.17;1.70;;;15.30;91.40;;;15.87;56.34;99493.16;4967588;28;114445;-77
2022/11/02 09:13:37;;;;;;;2.07;1.40;;;15.40;91.40;;;15.94;56.39;99491.84;4967869;28;124241;-78
2022/11/02 09:16:04;;;;;;;5.30;1.97;;;15.40;91.30;;;15.97;56.20;99499.53;4968062;28;123641;-78
2022/11/02 09:18:31;;;;;;;6.57;2.10;;;15.40;91.20;;;16.00;56.09;99504.44;4968068;28;114716;-78
2022/11/02 09:21:01;;;;;;;3.10;1.60;;;15.50;91.20;;;16.03;56.24;99492.63;4968680;28;114146;-78
2022/11/02 09:23:28;;;;;;;5.37;1.80;;;15.50;91.20;;;16.04;55.95;99492.31;4966239;28;125056;-79
2022/11/02 09:25:54;;;;;;;9.07;2.30;;;15.50;91.10;;;16.07;55.79;99497.22;4968721;28;123837;-78
2022/11/02 09:28:21;;;;;;;5.67;1.90;;;15.60;91.10;;;16.10;56.03;99504.91;4964434;28;115022;-78
2022/11/02 09:30:47;;;;;;;3.40;1.60;;;15.60;91.00;;;16.14;55.37;99507.84;4970171;28;115579;-78
2022/11/02 09:33:15;;;;;;;4.37;2.10;;;15.60;90.90;;;16.14;55.11;99499.47;4970353;28;124229;-78
2022/11/02 09:35:47;;;;;;;5.20;1.90;;;15.70;90.60;;;16.16;54.78;99502.75;4978597;28;122945;-78
2022/11/02 09:38:15;;;;;;;10.67;2.00;;;15.70;90.60;;;16.15;54.73;99501.13;4969225;28;114234;-78
2022/11/02 09:41:03;;;;;;;3.27;1.50;;;15.70;90.40;;;16.18;54.43;99503.25;4969121;28;113300;-78
2022/11/02 09:43:45;;;;;;;6.03;2.20;;;16.10;90.50;;;16.21;54.43;99493.41;4966039;28;123954;-77
2022/11/02 09:46:19;;;;;;;9.43;1.90;;;15.70;90.30;;;16.25;54.39;99502.72;4966480;28;123479;-76
2022/11/02 09:49:19;;;;;;;4.60;1.53;;;15.80;90.30;;;16.28;54.29;99497.31;4969349;28;113708;-78
2022/11/02 09:51:50;;;;;;;4.00;1.50;;;15.80;90.20;;;16.32;54.07;99505.84;4964984;28;114561;-75
2022/11/02 09:54:22;;;;;;;3.00;1.50;;;15.80;90.10;;;16.39;54.05;99506.13;4966064;28;124719;-77
2022/11/02 09:56:50;;;;;;;3.30;1.63;;;15.90;90.10;;;16.47;53.70;99521.19;4978202;28;124468;-77
2022/11/02 09:59:21;;;;;;;10.83;1.80;;;16.00;90.00;;;16.51;53.13;99525.75;4967687;28;113680;-77
2022/11/02 10:01:55;;;;;;;4.47;2.13;;;16.00;89.60;;;16.51;52.96;99524.94;4985466;28;111896;-76
2022/11/02 10:04:47;;;;;;;11.83;1.90;;;16.00;89.00;;;16.49;52.42;99538.41;4969165;28;123619;-80
2022/11/02 10:07:32;;;;;;;4.23;1.93;;;16.00;88.30;;;16.47;52.15;99533.19;4968359;28;124410;-79
2022/11/02 10:10:14;;;;;;;5.10;2.50;;;16.10;87.90;;;16.48;52.21;99531.22;4967703;28;114692;-78
2022/11/02 10:12:46;;;;;;;2.30;1.30;;;16.10;87.80;;;16.52;51.86;99526.56;4957843;28;114065;-80
2022/11/02 10:15:20;;;;;;;3.30;1.73;;;16.10;87.60;;;16.57;51.37;99532.78;4967346;28;124478;-80
2022/11/02 10:17:53;;;;;;;6.10;1.80;;;16.10;87.20;;;16.62;51.05;99520.63;4952434;28;122788;-80
2022/11/02 10:20:35;;;;;;;3.30;1.60;;;16.10;86.80;;;16.67;50.69;99525.22;4967150;28;115195;-78
2022/11/02 10:23:07;;;;;;;6.10;1.90;;;16.20;86.50;;;16.70;50.83;99519.78;4985902;28;114306;-78
2022/11/02 10:25:35;;;;;;;5.93;2.00;;;16.20;86.30;;;16.74;50.43;99519.94;4966431;28;124119;-76
2022/11/02 10:28:18;;;;;;;5.43;1.87;;;16.20;85.90;;;16.73;49.67;99507.13;4967284;28;122898;-77
2022/11/02 10:30:45;;;;;;;8.97;2.13;;;16.30;84.80;;;16.72;49.21;99519.44;4956633;28;113671;-77
2022/11/02 10:33:18;;;;;;;6.63;1.80;;;16.40;84.30;;;16.70;49.18;99519.78;4961368;28;113770;-77
2022/11/02 10:36:07;;;;;;;6.37;1.70;;;16.20;84.20;;;16.69;49.62;99509.78;4963775;28;123973;-78
2022/11/02 10:39:17;;;;;;;3.70;1.40;;;16.30;84.40;;;16.69;49.43;99515.34;4985270;28;122988;-78
2022/11/02 10:42:23;;;;;;;5.47;1.63;;;16.30;83.90;;;16.65;49.47;99508.78;4965997;28;114124;-77
2022/11/02 10:45:03;;;;;;;7.23;2.10;;;16.30;83.90;;;16.69;49.46;99507.00;4982797;28;113067;-80